createdAt,value
2018-07-11T00:02:13.159Z,12.08
2018-07-11T00:04:42.378Z,12.30
2018-07-11T00:07:11.803Z,12.36
2018-07-11T00:09:41.119Z,12.20
2018-07-11T00:12:10.351Z,12.05
2018-07-11T00:14:39.559Z,11.93
2018-07-11T00:17:14.722Z,11.74
2018-07-11T00:19:44.414Z,11.80
2018-07-11T00:22:13.974Z,11.72
2018-07-11T00:24:43.192Z,11.73
2018-07-11T00:27:12.390Z,11.69
2018-07-11T00:29:41.607Z,11.63
2018-07-11T00:32:10.789Z,11.61
2018-07-11T00:34:40.830Z,11.53
2018-07-11T00:37:10.097Z,11.44
2018-07-11T00:39:39.567Z,11.48
2018-07-11T00:42:08.798Z,11.38
2018-07-11T00:44:38.051Z,11.55
2018-07-11T00:47:07.288Z,11.56
2018-07-11T00:49:36.558Z,11.60
2018-07-11T00:52:05.775Z,11.70
2018-07-11T00:54:35.032Z,11.76
2018-07-11T00:57:04.244Z,11.88
2018-07-11T00:59:33.500Z,11.91
2018-07-11T01:02:05.469Z,11.94
2018-07-11T01:04:34.868Z,12.00
2018-07-11T01:07:05.707Z,12.09
2018-07-11T01:09:46.906Z,12.25
2018-07-11T01:12:16.143Z,12.31
2018-07-11T01:14:46.053Z,12.45
2018-07-11T01:17:20.587Z,12.53
2018-07-11T01:19:49.879Z,12.49
2018-07-11T01:22:19.084Z,12.51
2018-07-11T01:24:48.282Z,12.24
2018-07-11T01:27:17.518Z,12.18
2018-07-11T01:29:46.771Z,12.03
2018-07-11T01:32:15.986Z,11.98
2018-07-11T01:34:45.223Z,12.00
2018-07-11T01:37:14.427Z,12.00
2018-07-11T01:39:44.395Z,12.04
2018-07-11T01:42:13.636Z,12.09
2018-07-11T01:44:43.267Z,12.19
2018-07-11T01:47:12.471Z,12.20
2018-07-11T01:49:41.759Z,12.20
2018-07-11T01:52:22.203Z,12.18
2018-07-11T01:54:51.766Z,12.08
2018-07-11T01:57:21.139Z,11.93
2018-07-11T01:59:50.540Z,11.85
2018-07-11T02:02:19.791Z,11.85
2018-07-11T02:04:49.062Z,11.83
2018-07-11T02:07:18.267Z,11.86
2018-07-11T02:09:47.507Z,11.80
2018-07-11T02:12:16.791Z,11.79
2018-07-11T02:14:51.479Z,11.80
2018-07-11T02:17:20.732Z,11.94
2018-07-11T02:19:49.956Z,11.85
2018-07-11T02:22:19.220Z,11.94
2018-07-11T02:24:48.718Z,12.11
2018-07-11T02:27:17.998Z,12.13
2018-07-11T02:29:47.218Z,12.11
2018-07-11T02:32:16.480Z,12.18
2018-07-11T02:34:45.719Z,12.14
2018-07-11T02:37:15.075Z,12.20
2018-07-11T02:39:44.279Z,12.17
2018-07-11T02:42:13.733Z,12.25
2018-07-11T02:44:42.988Z,12.30
2018-07-11T02:47:18.340Z,12.13
2018-07-11T02:49:47.758Z,12.27
2018-07-11T02:52:17.039Z,12.24
2018-07-11T02:54:46.470Z,12.31
2018-07-11T02:57:15.700Z,12.39
2018-07-11T02:59:45.039Z,12.36
2018-07-11T03:02:14.373Z,12.47
2018-07-11T03:04:44.763Z,12.36
2018-07-11T03:07:14.031Z,12.39
2018-07-11T03:09:43.230Z,12.29
2018-07-11T03:12:12.447Z,12.59
2018-07-11T03:14:44.328Z,12.52
2018-07-11T03:17:13.551Z,12.43
2018-07-11T03:19:42.931Z,12.58
2018-07-11T03:22:12.283Z,12.51
2018-07-11T03:24:41.867Z,12.42
2018-07-11T03:27:11.137Z,12.37
2018-07-11T03:29:40.489Z,12.27
2018-07-11T03:32:11.136Z,12.19
2018-07-11T03:34:40.334Z,12.24
2018-07-11T03:37:09.576Z,12.47
2018-07-11T03:39:39.795Z,12.40
2018-07-11T03:42:09.035Z,12.49
2018-07-11T03:44:38.307Z,12.43
2018-07-11T03:47:08.074Z,12.40
2018-07-11T03:49:37.270Z,12.39
2018-07-11T03:52:06.663Z,12.37
2018-07-11T03:54:35.876Z,12.35
2018-07-11T03:57:05.603Z,12.44
2018-07-11T03:59:34.851Z,12.43
2018-07-11T04:02:04.062Z,12.42
2018-07-11T04:04:33.263Z,12.39
2018-07-11T04:07:03.227Z,12.44
2018-07-11T04:09:32.418Z,12.47
2018-07-11T04:12:01.627Z,12.65
2018-07-11T04:14:30.810Z,12.42
2018-07-11T04:17:00.286Z,12.44
2018-07-11T04:19:29.463Z,12.60
2018-07-11T04:21:58.699Z,12.51
2018-07-11T04:24:28.039Z,12.60
2018-07-11T04:26:57.311Z,12.68
2018-07-11T04:29:26.563Z,12.70
2018-07-11T04:31:55.838Z,12.78
2018-07-11T04:34:25.068Z,12.76
2018-07-11T04:36:54.335Z,12.74
2018-07-11T04:39:23.578Z,12.57
2018-07-11T04:41:53.655Z,12.66
2018-07-11T04:44:22.882Z,12.59
2018-07-11T04:46:52.150Z,12.60
2018-07-11T04:49:21.422Z,12.63
2018-07-11T04:51:51.291Z,12.71
2018-07-11T04:54:20.656Z,12.70
2018-07-11T04:56:49.915Z,12.78
2018-07-11T04:59:19.219Z,12.73
2018-07-11T05:01:48.851Z,12.78
2018-07-11T05:04:18.111Z,12.83
2018-07-11T05:06:47.343Z,12.91
2018-07-11T05:09:16.555Z,12.98
2018-07-11T05:11:45.747Z,12.94
2018-07-11T05:14:14.939Z,13.01
2018-07-11T05:16:44.279Z,13.09
2018-07-11T05:19:13.599Z,13.15
2018-07-11T05:21:42.810Z,13.31
2018-07-11T05:24:12.692Z,13.17
2018-07-11T05:26:41.874Z,13.10
2018-07-11T05:29:11.071Z,13.20
2018-07-11T05:31:40.291Z,13.24
2018-07-11T05:34:09.492Z,13.16
2018-07-11T05:36:39.175Z,13.20
2018-07-11T05:39:08.378Z,13.40
2018-07-11T05:41:37.648Z,13.28
2018-07-11T05:44:06.871Z,13.31
2018-07-11T05:46:36.070Z,13.34
2018-07-11T05:49:05.675Z,13.48
2018-07-11T05:51:35.114Z,13.93
2018-07-11T05:54:04.326Z,13.88
2018-07-11T05:56:33.507Z,13.81
2018-07-11T05:59:02.715Z,14.00
2018-07-11T06:01:32.119Z,14.12
2018-07-11T06:04:01.125Z,13.83
2018-07-11T06:06:30.320Z,13.74
2018-07-11T06:08:59.500Z,14.02
2018-07-11T06:11:28.715Z,14.24
2018-07-11T06:13:57.952Z,14.39
2018-07-11T06:16:27.214Z,14.19
2018-07-11T06:18:56.354Z,14.08
2018-07-11T06:21:26.782Z,13.88
2018-07-11T06:23:56.279Z,13.63
2018-07-11T06:26:25.485Z,13.51
2018-07-11T06:28:54.770Z,13.33
2018-07-11T06:31:23.968Z,13.45
2018-07-11T06:33:53.187Z,13.58
2018-07-11T06:36:22.359Z,13.52
2018-07-11T06:38:51.773Z,13.45
2018-07-11T06:41:20.954Z,13.27
2018-07-11T06:43:50.195Z,13.32
2018-07-11T06:46:19.804Z,13.24
2018-07-11T06:48:49.051Z,13.38
2018-07-11T06:51:18.339Z,13.46
2018-07-11T06:53:47.547Z,13.50
2018-07-11T06:56:16.724Z,13.24
2018-07-11T06:58:46.162Z,13.35
2018-07-11T07:01:15.358Z,13.24
2018-07-11T07:03:44.578Z,13.50
2018-07-11T07:06:13.790Z,13.48
2018-07-11T07:08:43.382Z,13.57
2018-07-11T07:11:12.602Z,13.63
2018-07-11T07:13:41.819Z,13.46
2018-07-11T07:16:11.199Z,13.53
2018-07-11T07:18:40.443Z,13.64
2018-07-11T07:21:09.654Z,13.77
2018-07-11T07:23:38.874Z,13.51
2018-07-11T07:26:08.043Z,13.42
2018-07-11T07:28:37.266Z,13.37
2018-07-11T07:31:06.883Z,13.37
2018-07-11T07:33:36.090Z,13.53
2018-07-11T07:36:05.303Z,13.81
2018-07-11T07:38:41.635Z,13.98
2018-07-11T07:41:11.151Z,14.32
2018-07-11T07:43:41.801Z,14.59
2018-07-11T07:46:11.047Z,14.83
2018-07-11T07:48:40.291Z,15.32
2018-07-11T07:51:09.529Z,15.79
2018-07-11T07:53:38.706Z,15.91
2018-07-11T07:56:07.959Z,15.48
2018-07-11T07:58:37.210Z,16.00
2018-07-11T08:01:06.830Z,15.84
2018-07-11T08:03:37.323Z,15.88
2018-07-11T08:06:06.652Z,16.18
2018-07-11T08:08:35.851Z,16.12
2018-07-11T08:11:05.059Z,16.09
2018-07-11T08:13:34.295Z,16.06
2018-07-11T08:16:03.486Z,15.87
2018-07-11T08:18:32.827Z,15.55
2018-07-11T08:21:02.011Z,15.50
2018-07-11T08:23:42.824Z,14.99
2018-07-11T08:26:23.522Z,15.23
2018-07-11T08:30:09.379Z,15.37
2018-07-11T08:34:48.759Z,15.96
2018-07-11T08:39:38.623Z,16.48
2018-07-11T08:42:17.880Z,23.32
2018-07-11T08:45:38.780Z,24.17
2018-07-11T08:48:31.738Z,22.27
2018-07-11T08:53:14.231Z,20.82
2018-07-11T08:55:56.454Z,18.52
2018-07-11T08:58:40.525Z,18.15
2018-07-11T09:01:24.659Z,17.97
2018-07-11T09:06:05.928Z,17.84
2018-07-11T09:09:16.855Z,21.12
2018-07-11T09:12:05.186Z,20.47
2018-07-11T09:16:48.479Z,20.02
2018-07-11T09:19:38.573Z,25.76
2018-07-11T09:24:30.018Z,24.08
2018-07-11T09:26:59.243Z,24.21
2018-07-11T09:29:28.931Z,24.23
2018-07-11T09:31:58.442Z,22.93
2018-07-11T09:34:27.915Z,20.78
2018-07-11T09:36:57.124Z,20.15
2018-07-11T09:39:26.407Z,22.45
2018-07-11T09:41:55.691Z,25.29
2018-07-11T09:44:25.087Z,24.91
2018-07-11T09:46:55.064Z,24.50
2018-07-11T09:49:25.704Z,23.30
2018-07-11T09:51:55.435Z,25.43
2018-07-11T09:54:25.003Z,27.96
2018-07-11T09:56:54.254Z,28.30
2018-07-11T09:59:23.555Z,29.46
2018-07-11T10:01:52.802Z,30.47
2018-07-11T10:04:23.983Z,28.09
2018-07-11T10:06:53.507Z,25.04
2018-07-11T10:09:23.417Z,24.86
2018-07-11T10:11:52.957Z,24.95
2018-07-11T10:14:22.591Z,23.72
2018-07-11T10:16:52.022Z,27.49
2018-07-11T10:19:21.615Z,27.93
2018-07-11T10:21:50.838Z,26.63
2018-07-11T10:24:20.594Z,26.19
2018-07-11T10:26:50.056Z,26.08
2018-07-11T10:29:19.559Z,25.73
2018-07-11T10:31:48.779Z,23.91
2018-07-11T10:34:18.008Z,23.67
2018-07-11T10:36:47.704Z,22.24
2018-07-11T10:39:16.953Z,21.46
2018-07-11T10:41:46.271Z,21.06
2018-07-11T10:44:15.782Z,23.77
2018-07-11T10:46:45.609Z,27.37
2018-07-11T10:49:14.818Z,28.91
2018-07-11T10:51:44.059Z,27.52
2018-07-11T10:54:13.320Z,26.72
2018-07-11T10:56:42.875Z,25.29
2018-07-11T10:59:12.887Z,23.31
2018-07-11T11:01:42.111Z,22.19
2018-07-11T11:04:11.322Z,21.90
2018-07-11T11:06:40.512Z,26.28
2018-07-11T11:09:09.710Z,26.49
2018-07-11T11:11:38.898Z,26.43
2018-07-11T11:14:08.164Z,29.91
2018-07-11T11:16:37.359Z,31.32
2018-07-11T11:19:06.563Z,29.45
2018-07-11T11:21:35.775Z,27.88
2018-07-11T11:24:05.002Z,25.33
2018-07-11T11:26:34.210Z,24.16
2018-07-11T11:29:03.398Z,24.34
2018-07-11T11:31:32.571Z,23.58
2018-07-11T11:34:02.114Z,22.53
2018-07-11T11:36:31.327Z,25.83
2018-07-11T11:39:00.519Z,28.48
2018-07-11T11:41:30.124Z,30.88
2018-07-11T11:43:59.900Z,31.87
2018-07-11T11:46:29.143Z,30.00
2018-07-11T11:48:58.716Z,30.69
2018-07-11T11:51:28.143Z,26.95
2018-07-11T11:53:57.568Z,25.85
2018-07-11T11:56:26.755Z,24.80
2018-07-11T11:58:55.971Z,25.92
2018-07-11T12:01:25.785Z,26.47
2018-07-11T12:03:54.997Z,28.17
2018-07-11T12:06:24.348Z,27.90
2018-07-11T12:08:53.539Z,27.38
2018-07-11T12:11:22.991Z,27.56
2018-07-11T12:13:52.186Z,29.43
2018-07-11T12:16:21.375Z,28.29
2018-07-11T12:18:50.568Z,29.37
2018-07-11T12:21:20.039Z,29.55
2018-07-11T12:23:49.226Z,27.56
2018-07-11T12:26:18.484Z,26.05
2018-07-11T12:28:47.818Z,25.54
2018-07-11T12:31:17.039Z,23.40
2018-07-11T12:33:46.269Z,22.81
2018-07-11T12:36:15.632Z,22.43
2018-07-11T12:38:45.848Z,22.08
2018-07-11T12:41:15.099Z,21.25
2018-07-11T12:43:44.775Z,21.28
2018-07-11T12:46:14.027Z,21.25
2018-07-11T12:48:48.755Z,20.44
2018-07-11T12:51:17.972Z,20.46
2018-07-11T12:53:47.202Z,20.23
2018-07-11T12:56:16.447Z,20.37
2018-07-11T12:58:45.987Z,20.18
2018-07-11T13:01:15.239Z,20.21
2018-07-11T13:03:44.486Z,20.39
2018-07-11T13:06:13.764Z,20.85
2018-07-11T13:08:42.983Z,21.55
2018-07-11T13:11:12.207Z,21.49
2018-07-11T13:13:41.867Z,21.93
2018-07-11T13:16:11.196Z,22.30
2018-07-11T13:18:40.371Z,22.33
2018-07-11T13:21:09.615Z,23.18
2018-07-11T13:23:38.799Z,24.62
2018-07-11T13:26:08.196Z,25.30
2018-07-11T13:28:37.571Z,25.62
2018-07-11T13:31:06.878Z,25.97
2018-07-11T13:33:36.181Z,27.36
2018-07-11T13:36:05.375Z,28.06
2018-07-11T13:38:34.695Z,27.21
2018-07-11T13:41:04.278Z,26.48
2018-07-11T13:43:33.612Z,25.76
2018-07-11T13:46:02.828Z,24.59
2018-07-11T13:48:32.032Z,24.23
2018-07-11T13:51:01.415Z,24.70
2018-07-11T13:53:31.223Z,25.14
2018-07-11T13:56:00.781Z,24.94
2018-07-11T13:58:30.026Z,25.46
2018-07-11T14:00:59.243Z,25.42
2018-07-11T14:03:28.450Z,24.90
2018-07-11T14:05:57.703Z,24.80
2018-07-11T14:08:26.886Z,24.00
2018-07-11T14:10:56.111Z,24.62
2018-07-11T14:13:25.315Z,24.58
2018-07-11T14:15:54.999Z,24.44
2018-07-11T14:18:24.680Z,23.97
2018-07-11T14:20:53.911Z,23.59
2018-07-11T14:23:41.006Z,22.79
2018-07-11T14:26:11.274Z,22.04
2018-07-11T14:28:46.086Z,21.64
2018-07-11T14:31:19.357Z,21.52
2018-07-11T14:33:49.767Z,20.95
2018-07-11T14:36:19.062Z,20.42
2018-07-11T14:38:48.549Z,20.40
2018-07-11T14:41:17.787Z,20.45
2018-07-11T14:43:47.799Z,20.44
2018-07-11T14:46:18.109Z,20.41
2018-07-11T14:48:47.292Z,20.53
2018-07-11T14:51:17.051Z,20.62
2018-07-11T14:53:46.216Z,20.97
2018-07-11T14:56:16.118Z,21.60
2018-07-11T14:58:45.498Z,21.74
2018-07-11T15:01:14.771Z,21.99
2018-07-11T15:03:44.019Z,21.80
2018-07-11T15:06:15.008Z,21.86
2018-07-11T15:08:44.282Z,21.61
2018-07-11T15:11:14.443Z,21.80
2018-07-11T15:13:43.888Z,22.07
2018-07-11T15:16:13.151Z,21.53
2018-07-11T15:18:42.376Z,21.93
2018-07-11T15:21:12.347Z,21.21
2018-07-11T15:23:41.909Z,21.16
2018-07-11T15:26:11.271Z,21.37
2018-07-11T15:28:40.686Z,20.87
2018-07-11T15:31:09.885Z,20.97
2018-07-11T15:33:39.306Z,21.02
2018-07-11T15:36:08.626Z,20.83
2018-07-11T15:38:38.085Z,21.10
2018-07-11T15:41:07.910Z,21.26
2018-07-11T15:43:37.631Z,21.22
2018-07-11T15:46:06.819Z,21.32
2018-07-11T15:48:36.023Z,21.25
2018-07-11T15:51:05.291Z,20.80
2018-07-11T15:53:34.803Z,20.81
2018-07-11T15:56:03.972Z,20.43
2018-07-11T15:58:36.924Z,20.34
2018-07-11T16:01:10.179Z,20.17
2018-07-11T16:03:43.367Z,20.21
2018-07-11T16:06:12.592Z,20.51
2018-07-11T16:08:50.171Z,20.44
2018-07-11T16:11:19.437Z,20.20
2018-07-11T16:13:48.971Z,19.81
2018-07-11T16:16:18.426Z,19.88
2018-07-11T16:18:48.551Z,20.19
2018-07-11T16:21:17.771Z,20.34
2018-07-11T16:23:47.044Z,20.29
2018-07-11T16:26:16.254Z,19.94
2018-07-11T16:28:45.460Z,20.21
2018-07-11T16:31:15.272Z,20.32
2018-07-11T16:33:44.811Z,20.04
2018-07-11T16:36:14.983Z,19.85
2018-07-11T16:38:44.838Z,19.71
2018-07-11T16:41:14.080Z,19.87
2018-07-11T16:43:43.892Z,19.84
2018-07-11T16:46:13.398Z,19.79
2018-07-11T16:48:42.640Z,19.78
2018-07-11T16:51:11.836Z,19.88
2018-07-11T16:53:41.147Z,19.48
2018-07-11T16:56:10.393Z,19.83
2018-07-11T16:58:45.663Z,19.71
2018-07-11T17:01:15.104Z,19.89
2018-07-11T17:03:45.615Z,19.83
2018-07-11T17:06:14.815Z,19.94
2018-07-11T17:08:53.969Z,19.89
2018-07-11T17:11:27.939Z,19.78
2018-07-11T17:13:59.904Z,19.78
2018-07-11T17:17:03.318Z,19.71
2018-07-11T17:19:39.889Z,19.75
2018-07-11T17:22:09.387Z,19.62
2018-07-11T17:24:41.121Z,19.70
2018-07-11T17:27:11.465Z,19.60
2018-07-11T17:29:41.442Z,19.68
2018-07-11T17:32:11.791Z,19.49
2018-07-11T17:34:41.173Z,19.53
2018-07-11T17:37:11.403Z,19.47
2018-07-11T17:39:51.962Z,19.41
2018-07-11T17:42:28.832Z,19.34
2018-07-11T17:45:15.383Z,19.18
2018-07-11T17:49:59.447Z,19.18
2018-07-11T17:52:29.236Z,19.25
2018-07-11T17:55:11.011Z,19.12
2018-07-11T17:57:52.695Z,19.22
2018-07-11T18:00:38.860Z,19.02
2018-07-11T18:03:17.619Z,18.80
2018-07-11T18:05:54.853Z,18.62
2018-07-11T18:08:30.355Z,18.55
2018-07-11T18:10:59.987Z,18.43
2018-07-11T18:13:32.756Z,18.33
2018-07-11T18:16:30.721Z,18.38
2018-07-11T18:19:16.222Z,18.19
2018-07-11T18:22:24.080Z,18.07
2018-07-11T18:25:18.494Z,17.81
2018-07-11T18:27:55.407Z,17.92
2018-07-11T18:30:35.476Z,17.75
2018-07-11T18:35:22.427Z,17.78
2018-07-11T18:37:56.735Z,17.58
2018-07-11T18:40:32.192Z,17.60
2018-07-11T18:43:18.859Z,17.57
2018-07-11T18:48:06.156Z,17.61
2018-07-11T18:50:45.375Z,17.58
2018-07-11T18:53:28.079Z,17.71
2018-07-11T18:56:15.735Z,17.63
2018-07-11T18:58:53.479Z,17.44
2018-07-11T19:01:30.588Z,17.44
2018-07-11T19:04:07.915Z,17.42
2018-07-11T19:06:51.116Z,17.38
2018-07-11T19:09:33.669Z,17.30
2018-07-11T19:14:14.233Z,17.36
2018-07-11T19:16:49.155Z,17.42
2018-07-11T19:19:26.587Z,17.37
2018-07-11T19:22:04.520Z,17.29
2018-07-11T19:26:45.989Z,17.25
2018-07-11T19:29:25.415Z,17.29
2018-07-11T19:32:15.237Z,17.31
2018-07-11T19:34:55.447Z,17.35
2018-07-11T19:37:33.803Z,17.29
2018-07-11T19:42:18.623Z,17.41
2018-07-11T19:44:57.367Z,17.39
2018-07-11T19:47:37.571Z,17.35
2018-07-11T19:50:21.011Z,17.35
2018-07-11T19:52:57.523Z,17.41
2018-07-11T19:59:33.508Z,17.36
2018-07-11T20:02:03.680Z,17.23
2018-07-11T20:04:33.225Z,17.24
2018-07-11T20:07:02.444Z,17.08
2018-07-11T20:09:32.809Z,16.78
2018-07-11T20:12:02.032Z,16.54
2018-07-11T20:14:31.649Z,16.30
2018-07-11T20:17:01.131Z,16.05
2018-07-11T20:19:30.401Z,16.02
2018-07-11T20:21:59.928Z,15.90
2018-07-11T20:24:29.127Z,15.80
2018-07-11T20:26:59.837Z,15.75
2018-07-11T20:29:29.759Z,15.81
2018-07-11T20:32:00.232Z,15.69
2018-07-11T20:34:29.383Z,15.83
2018-07-11T20:36:58.600Z,15.75
2018-07-11T20:39:28.216Z,15.69
2018-07-11T20:41:57.452Z,15.78
2018-07-11T20:44:26.687Z,15.72
2018-07-11T20:46:56.168Z,15.70
2018-07-11T20:49:31.667Z,15.68
2018-07-11T20:52:02.501Z,15.78
2018-07-11T20:54:32.334Z,15.85
2018-07-11T20:57:04.137Z,15.79
2018-07-11T20:59:45.003Z,15.79
2018-07-11T21:02:25.885Z,15.80
2018-07-11T21:07:08.927Z,15.80
2018-07-11T21:09:50.052Z,15.80
2018-07-11T21:13:32.395Z,15.68
2018-07-11T21:16:12.147Z,15.73
2018-07-11T21:19:07.579Z,15.81
2018-07-11T21:21:39.371Z,16.00
2018-07-11T21:24:09.572Z,16.00
2018-07-11T21:26:39.899Z,15.86
2018-07-11T21:29:09.701Z,15.90
2018-07-11T21:31:39.434Z,15.79
2018-07-11T21:34:09.069Z,15.76
2018-07-11T21:36:38.945Z,15.60
2018-07-11T21:39:08.391Z,15.62
2018-07-11T21:41:37.711Z,15.66
2018-07-11T21:44:07.267Z,15.71
2018-07-11T21:46:36.499Z,15.63
2018-07-11T21:49:05.912Z,15.70
2018-07-11T21:51:35.281Z,15.68
2018-07-11T21:54:04.956Z,15.72
2018-07-11T21:56:34.600Z,15.52
2018-07-11T21:59:05.511Z,15.47
2018-07-11T22:01:35.764Z,15.53
2018-07-11T22:04:06.095Z,15.62
2018-07-11T22:06:39.580Z,15.67
2018-07-11T22:09:10.141Z,15.62
2018-07-11T22:11:40.736Z,15.70
2018-07-11T22:14:11.249Z,15.68
2018-07-11T22:16:40.576Z,15.74
2018-07-11T22:19:11.008Z,15.69
2018-07-11T22:21:40.047Z,15.72
2018-07-11T22:24:08.820Z,15.60
2018-07-11T22:26:37.391Z,15.59
2018-07-11T22:29:06.198Z,15.59
2018-07-11T22:31:34.968Z,15.62
2018-07-11T22:34:03.232Z,15.59
2018-07-11T22:36:31.422Z,15.69
2018-07-11T22:38:59.192Z,15.46
2018-07-11T22:41:28.678Z,15.54
2018-07-11T22:43:56.699Z,15.56
2018-07-11T22:46:25.080Z,15.57
2018-07-11T22:48:53.215Z,15.61
2018-07-11T22:51:21.019Z,15.76
2018-07-11T22:53:48.965Z,15.60
2018-07-11T22:56:16.828Z,15.71
2018-07-11T22:58:44.974Z,15.74
2018-07-11T23:01:12.962Z,15.70
2018-07-11T23:03:41.519Z,15.51
2018-07-11T23:06:09.861Z,15.54
2018-07-11T23:08:37.677Z,15.56
2018-07-11T23:11:06.224Z,15.58
2018-07-11T23:13:34.475Z,15.66
2018-07-11T23:16:03.618Z,15.76
2018-07-11T23:18:31.479Z,15.66
2018-07-11T23:20:59.702Z,15.73
2018-07-11T23:23:27.633Z,15.65
2018-07-11T23:25:56.331Z,15.61
2018-07-11T23:28:24.697Z,15.67
2018-07-11T23:30:52.700Z,15.67
2018-07-11T23:33:20.568Z,15.65
2018-07-11T23:35:48.447Z,15.77
2018-07-11T23:38:16.301Z,15.62
2018-07-11T23:40:44.436Z,15.70
2018-07-11T23:43:12.596Z,15.73
2018-07-11T23:45:41.436Z,15.66
2018-07-11T23:48:09.195Z,15.71
2018-07-11T23:50:37.207Z,15.84
2018-07-11T23:53:04.999Z,15.89
2018-07-11T23:55:32.916Z,15.86
2018-07-11T23:58:00.687Z,15.84
